createdAt,value
2022-09-26T00:00:26.329Z,24.16
2022-09-26T00:01:04.025Z,24.18
2022-09-26T00:01:37.097Z,24.18
2022-09-26T00:02:08.728Z,24.17
2022-09-26T00:02:40.303Z,24.13
2022-09-26T00:03:11.777Z,24.17
2022-09-26T00:03:43.636Z,24.21
2022-09-26T00:04:22.538Z,24.18
2022-09-26T00:04:54.635Z,24.22
2022-09-26T00:05:26.090Z,24.24
2022-09-26T00:06:01.244Z,24.22
2022-09-26T00:06:32.718Z,24.21
2022-09-26T00:07:04.134Z,24.24
2022-09-26T00:07:35.493Z,24.20
2022-09-26T00:08:07.038Z,24.17
2022-09-26T00:08:38.452Z,24.12
2022-09-26T00:09:10.185Z,24.18
2022-09-26T00:09:41.650Z,24.19
2022-09-26T00:10:13.145Z,24.16
2022-09-26T00:10:44.566Z,24.11
2022-09-26T00:11:17.399Z,24.17
2022-09-26T00:11:48.954Z,24.16
2022-09-26T00:12:20.345Z,24.17
2022-09-26T00:12:51.761Z,24.21
2022-09-26T00:13:23.302Z,24.20
2022-09-26T00:13:55.415Z,24.18
2022-09-26T00:14:27.385Z,24.18
2022-09-26T00:14:58.794Z,24.17
2022-09-26T00:15:30.223Z,24.14
2022-09-26T00:16:01.922Z,24.17
2022-09-26T00:16:33.479Z,24.12
2022-09-26T00:17:05.106Z,24.15
2022-09-26T00:17:36.524Z,24.16
2022-09-26T00:18:07.984Z,24.17
2022-09-26T00:18:39.610Z,24.15
2022-09-26T00:19:11.125Z,24.15
2022-09-26T00:19:42.591Z,24.14
2022-09-26T00:20:14.062Z,24.13
2022-09-26T00:20:45.516Z,24.13
2022-09-26T00:21:17.050Z,24.13
2022-09-26T00:21:48.543Z,24.15
2022-09-26T00:22:20.057Z,24.14
2022-09-26T00:22:51.546Z,24.15
2022-09-26T00:23:22.946Z,24.16
2022-09-26T00:23:54.542Z,24.13
2022-09-26T00:24:26.023Z,24.10
2022-09-26T00:24:57.342Z,24.10
2022-09-26T00:25:28.819Z,24.08
2022-09-26T00:26:00.194Z,24.12
2022-09-26T00:26:32.195Z,24.11
2022-09-26T00:27:03.689Z,24.06
2022-09-26T00:27:35.098Z,24.11
2022-09-26T00:28:06.499Z,24.13
2022-09-26T00:28:37.950Z,24.11
2022-09-26T00:29:10.466Z,24.16
2022-09-26T00:29:41.968Z,24.15
2022-09-26T00:30:13.406Z,24.11
2022-09-26T00:30:44.962Z,24.12
2022-09-26T00:31:17.863Z,24.10
2022-09-26T00:31:49.351Z,24.12
2022-09-26T00:32:20.718Z,24.10
2022-09-26T00:32:52.200Z,24.15
2022-09-26T00:33:23.716Z,24.12
2022-09-26T00:33:55.436Z,24.14
2022-09-26T00:34:26.927Z,24.12
2022-09-26T00:34:58.457Z,24.14
2022-09-26T00:35:30.105Z,24.12
2022-09-26T00:36:01.679Z,24.15
2022-09-26T00:36:38.014Z,24.11
2022-09-26T00:37:10.269Z,24.12
2022-09-26T00:37:41.691Z,24.13
2022-09-26T00:38:13.167Z,24.16
2022-09-26T00:38:44.913Z,24.12
2022-09-26T00:39:16.638Z,24.10
2022-09-26T00:39:48.071Z,24.11
2022-09-26T00:40:19.674Z,24.11
2022-09-26T00:40:51.480Z,24.12
2022-09-26T00:41:22.948Z,24.10
2022-09-26T00:41:54.562Z,24.12
2022-09-26T00:42:26.090Z,24.10
2022-09-26T00:42:57.792Z,24.09
2022-09-26T00:43:35.710Z,24.11
2022-09-26T00:44:25.884Z,24.11
2022-09-26T00:44:57.312Z,24.10
2022-09-26T00:45:29.279Z,24.13
2022-09-26T00:46:20.686Z,24.11
2022-09-26T00:46:52.160Z,24.15
2022-09-26T00:47:29.544Z,24.16
2022-09-26T00:48:02.273Z,24.11
2022-09-26T00:48:34.327Z,24.11
2022-09-26T00:49:24.299Z,24.05
2022-09-26T00:49:57.549Z,24.11
2022-09-26T00:50:30.239Z,24.11
2022-09-26T00:51:01.651Z,24.13
2022-09-26T00:51:33.931Z,24.11
2022-09-26T00:52:08.035Z,24.08
2022-09-26T00:52:41.991Z,24.14
2022-09-26T00:53:17.938Z,24.12
2022-09-26T00:53:49.849Z,24.06
2022-09-26T00:54:21.291Z,24.05
2022-09-26T00:54:53.322Z,24.06
2022-09-26T00:55:25.932Z,24.05
2022-09-26T00:56:01.191Z,24.07
2022-09-26T00:56:33.577Z,24.06
2022-09-26T00:57:07.312Z,24.10
2022-09-26T00:57:40.247Z,24.10
2022-09-26T00:58:12.623Z,24.10
2022-09-26T00:58:51.894Z,24.08
2022-09-26T00:59:24.789Z,24.13
2022-09-26T00:59:59.498Z,24.11
2022-09-26T01:00:30.954Z,24.10
2022-09-26T01:01:02.498Z,24.07
2022-09-26T01:01:34.111Z,24.10
2022-09-26T01:02:05.898Z,24.11
2022-09-26T01:02:37.507Z,24.10
2022-09-26T01:03:08.992Z,24.10
2022-09-26T01:03:41.027Z,24.10
2022-09-26T01:04:12.455Z,24.12
2022-09-26T01:04:44.030Z,24.12
2022-09-26T01:05:15.973Z,24.13
2022-09-26T01:05:47.474Z,24.10
2022-09-26T01:06:18.979Z,24.04
2022-09-26T01:06:50.411Z,24.08
2022-09-26T01:07:22.332Z,24.07
2022-09-26T01:07:53.806Z,24.07
2022-09-26T01:08:26.557Z,24.09
2022-09-26T01:08:59.110Z,24.09
2022-09-26T01:09:30.578Z,24.06
2022-09-26T01:10:03.698Z,24.09
2022-09-26T01:10:35.126Z,24.11
2022-09-26T01:11:06.658Z,24.08
2022-09-26T01:11:38.732Z,24.07
2022-09-26T01:12:10.207Z,24.07
2022-09-26T01:12:41.795Z,24.07
2022-09-26T01:13:13.284Z,24.07
2022-09-26T01:13:44.703Z,24.08
2022-09-26T01:14:16.219Z,24.10
2022-09-26T01:14:48.493Z,24.07
2022-09-26T01:15:19.978Z,24.09
2022-09-26T01:15:51.449Z,24.08
2022-09-26T01:16:22.898Z,24.06
2022-09-26T01:16:54.365Z,24.04
2022-09-26T01:17:25.764Z,24.05
2022-09-26T01:17:57.185Z,24.07
2022-09-26T01:18:28.651Z,24.06
2022-09-26T01:19:00.546Z,24.05
2022-09-26T01:19:38.088Z,24.05
2022-09-26T01:20:09.470Z,24.07
2022-09-26T01:20:50.422Z,24.08
2022-09-26T01:21:30.756Z,24.08
2022-09-26T01:22:20.581Z,24.07
2022-09-26T01:23:04.160Z,24.04
2022-09-26T01:23:44.391Z,24.05
2022-09-26T01:24:30.871Z,24.06
2022-09-26T01:25:02.228Z,24.09
2022-09-26T01:25:52.398Z,24.07
2022-09-26T01:26:28.023Z,24.04
2022-09-26T01:27:23.437Z,24.08
2022-09-26T01:27:57.531Z,24.05
2022-09-26T01:28:49.373Z,24.05
2022-09-26T01:29:31.639Z,24.06
2022-09-26T01:30:06.982Z,24.03
2022-09-26T01:30:46.411Z,24.03
2022-09-26T01:31:47.310Z,24.01
2022-09-26T01:32:37.306Z,24.03
2022-09-26T01:33:16.208Z,24.03
2022-09-26T01:34:07.835Z,24.03
2022-09-26T01:34:42.521Z,24.04
2022-09-26T01:35:16.651Z,24.08
2022-09-26T01:36:04.552Z,24.03
2022-09-26T01:36:43.360Z,24.05
2022-09-26T01:37:34.999Z,24.08
2022-09-26T01:38:06.421Z,24.04
2022-09-26T01:38:52.639Z,23.99
2022-09-26T01:39:40.791Z,24.05
2022-09-26T01:40:17.019Z,24.01
2022-09-26T01:40:53.384Z,24.03
2022-09-26T01:41:29.534Z,24.04
2022-09-26T01:42:18.099Z,24.04
2022-09-26T01:43:00.501Z,24.05
2022-09-26T01:43:42.920Z,23.99
2022-09-26T01:44:22.706Z,24.03
2022-09-26T01:44:57.229Z,24.05
2022-09-26T01:45:30.772Z,24.05
2022-09-26T01:46:19.910Z,24.05
2022-09-26T01:46:52.243Z,24.10
2022-09-26T01:47:26.140Z,24.08
2022-09-26T01:48:05.287Z,24.07
2022-09-26T01:48:46.333Z,24.07
2022-09-26T01:49:23.507Z,24.07
2022-09-26T01:50:03.765Z,24.09
2022-09-26T01:50:42.667Z,24.08
2022-09-26T01:51:15.455Z,24.09
2022-09-26T01:52:05.503Z,24.06
2022-09-26T01:52:42.572Z,24.05
2022-09-26T01:53:25.126Z,24.07
2022-09-26T01:53:57.989Z,24.06
2022-09-26T01:54:31.780Z,24.07
2022-09-26T01:55:09.153Z,24.08
2022-09-26T01:55:41.460Z,24.03
2022-09-26T01:56:13.974Z,24.01
2022-09-26T01:56:46.311Z,24.05
2022-09-26T01:57:19.623Z,24.03
2022-09-26T01:58:11.326Z,24.04
2022-09-26T01:58:45.338Z,24.01
2022-09-26T01:59:18.520Z,24.00
2022-09-26T01:59:51.458Z,23.97
2022-09-26T02:00:22.930Z,24.00
2022-09-26T02:00:54.639Z,24.01
2022-09-26T02:01:26.973Z,24.00
2022-09-26T02:02:00.631Z,24.03
2022-09-26T02:02:33.271Z,24.03
2022-09-26T02:03:05.063Z,24.03
2022-09-26T02:03:37.236Z,23.99
2022-09-26T02:04:09.660Z,24.00
2022-09-26T02:04:41.834Z,24.03
2022-09-26T02:05:13.310Z,24.01
2022-09-26T02:05:49.269Z,24.05
2022-09-26T02:06:37.407Z,24.07
2022-09-26T02:07:11.474Z,24.08
2022-09-26T02:07:47.170Z,24.04
2022-09-26T02:08:20.433Z,24.07
2022-09-26T02:08:53.756Z,24.04
2022-09-26T02:09:26.791Z,24.04
2022-09-26T02:09:59.266Z,24.04
2022-09-26T02:10:32.871Z,24.02
2022-09-26T02:11:05.776Z,24.00
2022-09-26T02:11:37.956Z,24.00
2022-09-26T02:12:09.818Z,24.07
2022-09-26T02:12:43.117Z,24.05
2022-09-26T02:13:34.779Z,24.01
2022-09-26T02:14:06.755Z,24.06
2022-09-26T02:14:38.482Z,24.00
2022-09-26T02:15:11.382Z,24.02
2022-09-26T02:15:42.927Z,24.03
2022-09-26T02:16:17.374Z,24.04
2022-09-26T02:16:52.731Z,24.06
2022-09-26T02:17:27.771Z,24.04
2022-09-26T02:18:01.970Z,24.07
2022-09-26T02:18:35.112Z,24.07
2022-09-26T02:19:10.056Z,24.10
2022-09-26T02:19:44.144Z,24.12
2022-09-26T02:20:16.547Z,24.12
2022-09-26T02:20:51.878Z,24.09
2022-09-26T02:21:23.304Z,24.09
2022-09-26T02:21:54.880Z,24.03
2022-09-26T02:22:27.497Z,24.00
2022-09-26T02:22:59.202Z,24.00
2022-09-26T02:23:30.616Z,24.03
2022-09-26T02:24:02.078Z,24.04
2022-09-26T02:24:33.563Z,24.02
2022-09-26T02:25:05.276Z,24.03
2022-09-26T02:25:36.753Z,24.00
2022-09-26T02:26:08.277Z,23.99
2022-09-26T02:26:39.729Z,23.98
2022-09-26T02:27:11.330Z,23.97
2022-09-26T02:27:42.793Z,24.00
2022-09-26T02:28:14.636Z,24.05
2022-09-26T02:28:46.095Z,24.03
2022-09-26T02:29:17.502Z,23.98
2022-09-26T02:29:48.899Z,24.02
2022-09-26T02:30:20.328Z,24.01
2022-09-26T02:30:51.860Z,24.03
2022-09-26T02:31:23.868Z,24.05
2022-09-26T02:31:56.626Z,24.05
2022-09-26T02:32:29.227Z,24.06
2022-09-26T02:33:00.643Z,24.07
2022-09-26T02:33:32.069Z,24.06
2022-09-26T02:34:03.626Z,24.04
2022-09-26T02:34:35.023Z,24.06
2022-09-26T02:35:06.738Z,24.05
2022-09-26T02:35:38.245Z,24.05
2022-09-26T02:36:09.651Z,24.04
2022-09-26T02:36:41.108Z,24.05
2022-09-26T02:37:12.436Z,24.01
2022-09-26T02:37:43.801Z,24.04
2022-09-26T02:38:15.245Z,24.02
2022-09-26T02:38:46.763Z,24.06
2022-09-26T02:39:18.233Z,24.03
2022-09-26T02:39:50.189Z,23.99
2022-09-26T02:40:22.357Z,24.02
2022-09-26T02:41:12.056Z,24.04
2022-09-26T02:41:49.441Z,24.00
2022-09-26T02:42:24.512Z,24.03
2022-09-26T02:43:02.140Z,24.01
2022-09-26T02:43:38.707Z,24.02
2022-09-26T02:44:12.151Z,24.02
2022-09-26T02:44:48.465Z,24.05
2022-09-26T02:45:24.612Z,24.05
2022-09-26T02:46:14.442Z,24.05
2022-09-26T02:46:54.829Z,24.01
2022-09-26T02:47:35.319Z,24.06
2022-09-26T02:48:14.253Z,24.06
2022-09-26T02:48:48.585Z,24.04
2022-09-26T02:49:38.749Z,24.05
2022-09-26T02:50:10.152Z,23.99
2022-09-26T02:50:47.029Z,23.99
2022-09-26T02:51:27.478Z,24.00
2022-09-26T02:52:06.423Z,23.98
2022-09-26T02:52:42.427Z,23.98
2022-09-26T02:53:43.236Z,23.98
2022-09-26T02:54:20.478Z,23.99
2022-09-26T02:54:59.938Z,23.98
2022-09-26T02:56:06.714Z,23.99
2022-09-26T02:56:44.212Z,24.01
2022-09-26T02:57:20.223Z,24.00
2022-09-26T02:58:01.364Z,24.04
2022-09-26T02:58:53.011Z,23.99
2022-09-26T02:59:38.079Z,23.92
2022-09-26T03:00:17.015Z,23.87
2022-09-26T03:01:08.741Z,23.86
2022-09-26T03:01:57.019Z,23.87
2022-09-26T03:02:32.705Z,23.88
2022-09-26T03:03:06.830Z,23.87
2022-09-26T03:03:40.333Z,23.88
2022-09-26T03:04:18.415Z,23.90
2022-09-26T03:04:55.084Z,23.92
2022-09-26T03:05:27.768Z,23.86
2022-09-26T03:05:59.231Z,23.88
2022-09-26T03:06:33.023Z,23.87
2022-09-26T03:07:04.793Z,23.85
2022-09-26T03:07:39.287Z,23.90
2022-09-26T03:08:14.796Z,23.91
2022-09-26T03:08:47.279Z,23.89
2022-09-26T03:09:18.771Z,23.89
2022-09-26T03:09:50.208Z,23.88
2022-09-26T03:10:21.678Z,23.90
2022-09-26T03:10:53.469Z,23.87
2022-09-26T03:11:25.210Z,23.83
2022-09-26T03:11:57.371Z,23.85
2022-09-26T03:12:29.463Z,23.86
2022-09-26T03:13:05.389Z,23.86
2022-09-26T03:13:39.019Z,23.80
2022-09-26T03:14:10.825Z,23.85
2022-09-26T03:14:42.248Z,23.86
2022-09-26T03:15:13.771Z,23.82
2022-09-26T03:15:47.023Z,23.80
2022-09-26T03:16:18.600Z,23.80
2022-09-26T03:16:50.351Z,23.76
2022-09-26T03:17:21.817Z,23.81
2022-09-26T03:17:53.807Z,23.82
2022-09-26T03:18:27.419Z,23.82
2022-09-26T03:19:00.833Z,23.81
2022-09-26T03:19:33.704Z,23.80
2022-09-26T03:20:06.638Z,23.77
2022-09-26T03:20:38.070Z,23.75
2022-09-26T03:21:09.618Z,23.75
2022-09-26T03:21:41.109Z,23.79
2022-09-26T03:22:12.552Z,23.77
2022-09-26T03:22:44.117Z,23.77
2022-09-26T03:23:15.564Z,23.75
2022-09-26T03:23:47.076Z,23.74
2022-09-26T03:24:18.541Z,23.79
2022-09-26T03:24:50.007Z,23.77
2022-09-26T03:25:22.583Z,23.77
2022-09-26T03:26:10.440Z,23.81
2022-09-26T03:26:41.922Z,23.81
2022-09-26T03:27:13.399Z,23.83
2022-09-26T03:27:44.875Z,23.83
2022-09-26T03:28:16.375Z,23.84
2022-09-26T03:28:47.821Z,23.86
2022-09-26T03:29:19.352Z,23.86
2022-09-26T03:29:50.867Z,23.84
2022-09-26T03:30:22.456Z,23.84
2022-09-26T03:30:53.977Z,23.81
2022-09-26T03:31:25.600Z,23.82
2022-09-26T03:31:57.225Z,23.84
2022-09-26T03:32:28.686Z,23.81
2022-09-26T03:33:00.206Z,23.84
2022-09-26T03:33:31.620Z,23.85
2022-09-26T03:34:03.060Z,23.87
2022-09-26T03:34:34.500Z,23.88
2022-09-26T03:35:06.420Z,23.89
2022-09-26T03:35:37.856Z,23.88
2022-09-26T03:36:09.258Z,23.85
2022-09-26T03:36:40.635Z,23.86
2022-09-26T03:37:12.025Z,23.86
2022-09-26T03:37:43.453Z,23.89
2022-09-26T03:38:14.902Z,23.80
2022-09-26T03:38:46.362Z,23.82
2022-09-26T03:39:17.865Z,23.85
2022-09-26T03:39:49.337Z,23.86
2022-09-26T03:40:20.840Z,23.84
2022-09-26T03:40:53.435Z,23.91
2022-09-26T03:41:24.938Z,23.93
2022-09-26T03:41:56.414Z,23.92
2022-09-26T03:42:27.821Z,23.93
2022-09-26T03:42:59.318Z,23.93
2022-09-26T03:43:30.855Z,23.93
2022-09-26T03:44:02.309Z,23.86
2022-09-26T03:44:33.796Z,23.87
2022-09-26T03:45:06.108Z,23.88
2022-09-26T03:45:37.628Z,23.89
2022-09-26T03:46:09.317Z,23.90
2022-09-26T03:46:40.915Z,23.91
2022-09-26T03:47:12.421Z,23.91
2022-09-26T03:47:43.922Z,23.90
2022-09-26T03:48:15.446Z,23.89
2022-09-26T03:48:46.843Z,23.84
2022-09-26T03:49:18.287Z,23.83
2022-09-26T03:49:49.829Z,23.83
2022-09-26T03:50:21.291Z,23.82
2022-09-26T03:50:52.753Z,23.84
2022-09-26T03:51:24.245Z,23.81
2022-09-26T03:51:55.691Z,23.78
2022-09-26T03:52:27.062Z,23.74
2022-09-26T03:52:58.516Z,23.75
2022-09-26T03:53:31.444Z,23.75
2022-09-26T03:54:02.929Z,23.79
2022-09-26T03:54:34.381Z,23.80
2022-09-26T03:55:06.167Z,23.80
2022-09-26T03:55:37.723Z,23.79
2022-09-26T03:56:11.906Z,23.80
2022-09-26T03:56:43.394Z,23.76
2022-09-26T03:57:15.030Z,23.74
2022-09-26T03:57:46.461Z,23.74
2022-09-26T03:58:17.892Z,23.75
2022-09-26T03:58:49.355Z,23.72
2022-09-26T03:59:20.886Z,23.71
2022-09-26T03:59:52.340Z,23.68
2022-09-26T04:00:23.860Z,23.70
2022-09-26T04:00:55.408Z,23.67
2022-09-26T04:01:27.027Z,23.66
2022-09-26T04:01:58.572Z,23.72
2022-09-26T04:02:30.183Z,23.70
2022-09-26T04:03:01.770Z,23.71
2022-09-26T04:03:36.273Z,23.70
2022-09-26T04:04:07.738Z,23.66
2022-09-26T04:04:39.211Z,23.67
2022-09-26T04:05:10.646Z,23.66
2022-09-26T04:05:42.293Z,23.65
2022-09-26T04:06:13.741Z,23.66
2022-09-26T04:06:45.331Z,23.70
2022-09-26T04:07:16.873Z,23.67
2022-09-26T04:07:48.375Z,23.67
2022-09-26T04:08:19.836Z,23.65
2022-09-26T04:08:51.717Z,23.65
2022-09-26T04:09:23.324Z,23.63
2022-09-26T04:09:54.831Z,23.67
2022-09-26T04:10:26.308Z,23.64
2022-09-26T04:11:01.497Z,23.64
2022-09-26T04:11:32.962Z,23.64
2022-09-26T04:12:04.546Z,23.63
2022-09-26T04:12:36.043Z,23.61
2022-09-26T04:13:07.544Z,23.61
2022-09-26T04:13:54.576Z,23.64
2022-09-26T04:14:26.037Z,23.64
2022-09-26T04:14:57.497Z,23.62
2022-09-26T04:15:28.902Z,23.62
2022-09-26T04:16:00.563Z,23.64
2022-09-26T04:16:32.210Z,23.60
2022-09-26T04:17:03.877Z,23.58
2022-09-26T04:17:35.358Z,23.57
2022-09-26T04:18:06.892Z,23.60
2022-09-26T04:18:38.261Z,23.60
2022-09-26T04:19:09.816Z,23.61
2022-09-26T04:19:41.297Z,23.63
2022-09-26T04:20:12.763Z,23.61
2022-09-26T04:20:44.243Z,23.56
2022-09-26T04:21:15.741Z,23.53
2022-09-26T04:21:47.261Z,23.62
2022-09-26T04:22:18.772Z,23.60
2022-09-26T04:22:50.309Z,23.55
2022-09-26T04:23:21.763Z,23.59
2022-09-26T04:23:53.464Z,23.55
2022-09-26T04:24:24.967Z,23.58
2022-09-26T04:24:56.477Z,23.58
2022-09-26T04:25:27.934Z,23.60
2022-09-26T04:26:05.299Z,23.61
2022-09-26T04:26:36.752Z,23.58
2022-09-26T04:27:08.207Z,23.60
2022-09-26T04:27:39.611Z,23.57
2022-09-26T04:28:11.105Z,23.57
2022-09-26T04:28:42.554Z,23.57
2022-09-26T04:29:14.096Z,23.57
2022-09-26T04:29:45.717Z,23.59
2022-09-26T04:30:17.244Z,23.57
2022-09-26T04:30:48.595Z,23.55
2022-09-26T04:31:20.202Z,23.56
2022-09-26T04:31:51.806Z,23.56
2022-09-26T04:32:23.516Z,23.54
2022-09-26T04:32:54.961Z,23.54
2022-09-26T04:33:26.390Z,23.53
2022-09-26T04:33:57.817Z,23.52
2022-09-26T04:34:29.371Z,23.53
2022-09-26T04:35:00.832Z,23.53
2022-09-26T04:35:32.323Z,23.54
2022-09-26T04:36:04.280Z,23.54
2022-09-26T04:36:35.881Z,23.55
2022-09-26T04:37:07.358Z,23.54
2022-09-26T04:37:38.911Z,23.54
2022-09-26T04:38:10.403Z,23.52
2022-09-26T04:38:41.855Z,23.49
2022-09-26T04:39:13.408Z,23.48
2022-09-26T04:39:45.027Z,23.46
2022-09-26T04:40:16.571Z,23.46
2022-09-26T04:40:48.163Z,23.48
2022-09-26T04:41:20.169Z,23.52
2022-09-26T04:41:51.692Z,23.47
2022-09-26T04:42:23.131Z,23.50
2022-09-26T04:42:54.590Z,23.54
2022-09-26T04:43:26.116Z,23.53
2022-09-26T04:43:57.869Z,23.49
2022-09-26T04:44:29.327Z,23.47
2022-09-26T04:45:00.828Z,23.51
2022-09-26T04:45:32.361Z,23.48
2022-09-26T04:46:07.313Z,23.50
2022-09-26T04:46:38.913Z,23.51
2022-09-26T04:47:10.440Z,23.52
2022-09-26T04:47:42.005Z,23.49
2022-09-26T04:48:13.468Z,23.48
2022-09-26T04:48:44.925Z,23.47
2022-09-26T04:49:16.408Z,23.50
2022-09-26T04:49:47.953Z,23.54
2022-09-26T04:50:19.483Z,23.54
2022-09-26T04:50:51.072Z,23.52
2022-09-26T04:51:23.168Z,23.53
2022-09-26T04:51:54.729Z,23.53
2022-09-26T04:52:26.168Z,23.53
2022-09-26T04:52:57.731Z,23.50
2022-09-26T04:53:29.193Z,23.51
2022-09-26T04:54:00.887Z,23.50
2022-09-26T04:54:34.950Z,23.55
2022-09-26T04:55:06.588Z,23.56
2022-09-26T04:55:38.132Z,23.54
2022-09-26T04:56:10.006Z,23.55
2022-09-26T04:56:41.481Z,23.57
2022-09-26T04:57:18.778Z,23.60
2022-09-26T04:57:51.326Z,23.56
2022-09-26T04:58:22.777Z,23.56
2022-09-26T04:58:54.826Z,23.55
2022-09-26T04:59:26.306Z,23.54
2022-09-26T04:59:57.843Z,23.53
2022-09-26T05:00:29.380Z,23.52
2022-09-26T05:01:07.485Z,23.52
2022-09-26T05:01:39.118Z,23.51
2022-09-26T05:02:10.686Z,23.52
2022-09-26T05:02:42.279Z,23.51
2022-09-26T05:03:14.245Z,23.50
2022-09-26T05:03:45.707Z,23.50
2022-09-26T05:04:17.142Z,23.54
2022-09-26T05:04:48.689Z,23.54
2022-09-26T05:05:20.186Z,23.51
2022-09-26T05:05:51.645Z,23.50
2022-09-26T05:06:23.025Z,23.48
2022-09-26T05:06:54.642Z,23.51
2022-09-26T05:07:26.035Z,23.49
2022-09-26T05:07:57.486Z,23.48
2022-09-26T05:08:28.957Z,23.48
2022-09-26T05:09:00.505Z,23.50
2022-09-26T05:09:35.914Z,23.51
2022-09-26T05:10:08.043Z,23.53
2022-09-26T05:10:39.809Z,23.51
2022-09-26T05:11:11.251Z,23.51
2022-09-26T05:11:42.772Z,23.50
2022-09-26T05:12:14.214Z,23.51
2022-09-26T05:12:45.670Z,23.49
2022-09-26T05:13:17.200Z,23.47
2022-09-26T05:13:53.142Z,23.48
2022-09-26T05:14:25.272Z,23.51
2022-09-26T05:14:56.737Z,23.50
2022-09-26T05:15:28.281Z,23.52
2022-09-26T05:16:00.057Z,23.55
2022-09-26T05:16:31.716Z,23.54
2022-09-26T05:17:03.271Z,23.53
2022-09-26T05:17:37.513Z,23.53
2022-09-26T05:18:09.026Z,23.50
2022-09-26T05:18:40.444Z,23.51
2022-09-26T05:19:11.973Z,23.49
2022-09-26T05:19:43.548Z,23.49
2022-09-26T05:20:15.008Z,23.48
2022-09-26T05:20:46.530Z,23.47
2022-09-26T05:21:17.998Z,23.49
2022-09-26T05:21:49.511Z,23.53
2022-09-26T05:22:21.017Z,23.53
2022-09-26T05:22:52.412Z,23.56
2022-09-26T05:23:24.857Z,23.55
2022-09-26T05:23:56.632Z,23.53
2022-09-26T05:24:28.168Z,23.50
2022-09-26T05:24:59.576Z,23.50
2022-09-26T05:25:31.798Z,23.49
2022-09-26T05:26:03.328Z,23.51
2022-09-26T05:26:47.608Z,23.48
2022-09-26T05:27:19.158Z,23.49
2022-09-26T05:27:50.665Z,23.46
2022-09-26T05:28:22.224Z,23.47
2022-09-26T05:28:54.251Z,23.48
2022-09-26T05:29:25.684Z,23.49
2022-09-26T05:29:57.103Z,23.46
2022-09-26T05:30:28.568Z,23.46
2022-09-26T05:31:00.125Z,23.47
2022-09-26T05:31:31.791Z,23.45
2022-09-26T05:32:03.270Z,23.44
2022-09-26T05:32:34.796Z,23.44
2022-09-26T05:33:06.479Z,23.44
2022-09-26T05:33:38.007Z,23.47
2022-09-26T05:34:13.154Z,23.46
2022-09-26T05:34:45.764Z,23.46
2022-09-26T05:35:17.266Z,23.47
2022-09-26T05:35:49.464Z,23.47
2022-09-26T05:36:20.948Z,23.45
2022-09-26T05:36:55.106Z,23.41
2022-09-26T05:37:26.692Z,23.44
2022-09-26T05:37:58.942Z,23.44
2022-09-26T05:38:30.383Z,23.48
2022-09-26T05:39:01.996Z,23.51
2022-09-26T05:39:33.418Z,23.44
2022-09-26T05:40:05.110Z,23.46
2022-09-26T05:40:36.688Z,23.45
2022-09-26T05:41:08.261Z,23.44
2022-09-26T05:41:39.768Z,23.46
2022-09-26T05:42:11.327Z,23.46
2022-09-26T05:42:42.947Z,23.45
2022-09-26T05:43:14.433Z,23.44
2022-09-26T05:43:46.012Z,23.45
2022-09-26T05:44:17.450Z,23.41
2022-09-26T05:44:48.949Z,23.43
2022-09-26T05:45:20.420Z,23.46
2022-09-26T05:45:51.856Z,23.51
2022-09-26T05:46:23.438Z,23.50
2022-09-26T05:46:55.027Z,23.48
2022-09-26T05:47:26.571Z,23.43
2022-09-26T05:47:58.042Z,23.43
2022-09-26T05:48:29.494Z,23.41
2022-09-26T05:49:01.026Z,23.42
2022-09-26T05:49:32.498Z,23.43
2022-09-26T05:50:04.215Z,23.45
2022-09-26T05:50:36.079Z,23.46
2022-09-26T05:51:09.925Z,23.47
2022-09-26T05:51:41.335Z,23.47
2022-09-26T05:52:12.813Z,23.44
2022-09-26T05:52:44.256Z,23.39
2022-09-26T05:53:15.738Z,23.41
2022-09-26T05:53:47.502Z,23.41
2022-09-26T05:54:18.953Z,23.38
2022-09-26T05:54:50.406Z,23.43
2022-09-26T05:55:21.934Z,23.43
2022-09-26T05:55:53.401Z,23.44
2022-09-26T05:56:24.927Z,23.43
2022-09-26T05:56:56.370Z,23.43
2022-09-26T05:57:27.850Z,23.40
2022-09-26T05:57:59.252Z,23.41
2022-09-26T05:58:31.028Z,23.39
2022-09-26T05:59:02.502Z,23.40
2022-09-26T05:59:34.081Z,23.43
2022-09-26T06:00:05.861Z,23.41
2022-09-26T06:00:37.459Z,23.41
2022-09-26T06:01:09.867Z,23.45
2022-09-26T06:01:41.418Z,23.46
2022-09-26T06:02:15.221Z,23.42
2022-09-26T06:02:56.472Z,23.44
2022-09-26T06:03:28.028Z,23.40
2022-09-26T06:03:59.571Z,23.38
2022-09-26T06:04:31.089Z,23.38
2022-09-26T06:05:02.684Z,23.39
2022-09-26T06:05:34.181Z,23.34
2022-09-26T06:06:06.460Z,23.37
2022-09-26T06:06:38.017Z,23.39
2022-09-26T06:07:09.487Z,23.37
2022-09-26T06:07:41.004Z,23.35
2022-09-26T06:08:12.540Z,23.35
2022-09-26T06:08:44.371Z,23.36
2022-09-26T06:09:15.960Z,23.41
2022-09-26T06:09:47.490Z,23.41
2022-09-26T06:10:19.754Z,23.38
2022-09-26T06:10:51.318Z,23.36
2022-09-26T06:11:22.792Z,23.35
2022-09-26T06:11:54.223Z,23.35
2022-09-26T06:12:28.838Z,23.33
2022-09-26T06:13:00.745Z,23.37
2022-09-26T06:13:32.531Z,23.39
2022-09-26T06:14:04.073Z,23.40
2022-09-26T06:14:35.508Z,23.38
2022-09-26T06:15:07.172Z,23.37
2022-09-26T06:15:38.669Z,23.37
2022-09-26T06:16:10.613Z,23.37
2022-09-26T06:16:42.262Z,23.37
2022-09-26T06:17:13.837Z,23.36
2022-09-26T06:17:45.298Z,23.40
2022-09-26T06:18:16.766Z,23.39
2022-09-26T06:18:48.549Z,23.36
2022-09-26T06:19:22.974Z,23.36
2022-09-26T06:19:54.840Z,23.36
2022-09-26T06:20:26.511Z,23.33
2022-09-26T06:21:00.249Z,23.37
2022-09-26T06:21:31.829Z,23.38
2022-09-26T06:22:03.564Z,23.38
2022-09-26T06:22:41.582Z,23.34
2022-09-26T06:23:13.091Z,23.35
2022-09-26T06:23:44.592Z,23.40
2022-09-26T06:24:16.053Z,23.41
2022-09-26T06:24:47.548Z,23.40
2022-09-26T06:25:18.984Z,23.43
2022-09-26T06:25:50.443Z,23.46
2022-09-26T06:26:22.700Z,23.44
2022-09-26T06:26:54.121Z,23.44
2022-09-26T06:27:25.614Z,23.43
2022-09-26T06:27:59.989Z,23.38
2022-09-26T06:28:31.890Z,23.37
2022-09-26T06:29:03.374Z,23.36
2022-09-26T06:29:34.839Z,23.35
2022-09-26T06:30:07.018Z,23.38
2022-09-26T06:30:38.669Z,23.35
2022-09-26T06:31:13.992Z,23.37
2022-09-26T06:31:45.595Z,23.35
2022-09-26T06:32:17.025Z,23.35
2022-09-26T06:32:48.462Z,23.35
2022-09-26T06:33:20.289Z,23.34
2022-09-26T06:33:51.895Z,23.37
2022-09-26T06:34:23.403Z,23.35
2022-09-26T06:34:54.917Z,23.32
2022-09-26T06:35:26.465Z,23.32
2022-09-26T06:36:01.285Z,23.33
2022-09-26T06:36:33.563Z,23.35
2022-09-26T06:37:04.998Z,23.35
2022-09-26T06:37:36.434Z,23.35
2022-09-26T06:38:07.975Z,23.38
2022-09-26T06:38:39.485Z,23.40
2022-09-26T06:39:10.937Z,23.37
2022-09-26T06:39:42.460Z,23.37
2022-09-26T06:40:14.030Z,23.35
2022-09-26T06:40:45.504Z,23.39
2022-09-26T06:41:17.137Z,23.38
2022-09-26T06:41:48.634Z,23.41
2022-09-26T06:42:20.085Z,23.42
2022-09-26T06:42:51.582Z,23.40
2022-09-26T06:43:23.116Z,23.40
2022-09-26T06:43:54.693Z,23.37
2022-09-26T06:44:26.153Z,23.33
2022-09-26T06:44:57.688Z,23.33
2022-09-26T06:45:29.217Z,23.14
2022-09-26T06:46:00.730Z,23.17
2022-09-26T06:46:32.326Z,23.19
2022-09-26T06:47:03.957Z,23.17
2022-09-26T06:47:35.510Z,23.22
2022-09-26T06:48:07.000Z,23.24
2022-09-26T06:48:38.515Z,23.27
2022-09-26T06:49:10.009Z,23.31
2022-09-26T06:49:41.452Z,23.30
2022-09-26T06:50:12.926Z,23.25
2022-09-26T06:50:44.448Z,23.29
2022-09-26T06:51:15.929Z,23.28
2022-09-26T06:51:47.806Z,23.28
2022-09-26T06:52:19.352Z,23.27
2022-09-26T06:52:50.920Z,23.26
2022-09-26T06:53:22.580Z,23.27
2022-09-26T06:53:54.192Z,23.12
2022-09-26T06:54:25.768Z,23.16
2022-09-26T06:54:57.247Z,23.19
2022-09-26T06:55:28.791Z,23.23
2022-09-26T06:56:00.571Z,23.23
2022-09-26T06:56:32.048Z,23.25
2022-09-26T06:57:03.807Z,23.22
2022-09-26T06:57:38.682Z,23.20
2022-09-26T06:58:10.236Z,23.17
2022-09-26T06:58:41.800Z,23.17
2022-09-26T06:59:13.381Z,23.14
2022-09-26T06:59:44.885Z,23.11
2022-09-26T07:00:16.447Z,23.12
2022-09-26T07:00:48.004Z,23.16
2022-09-26T07:01:19.665Z,23.16
2022-09-26T07:01:51.336Z,23.16
2022-09-26T07:02:22.932Z,23.19
2022-09-26T07:02:54.668Z,23.16
2022-09-26T07:03:26.077Z,23.09
2022-09-26T07:03:57.455Z,23.05
2022-09-26T07:04:28.926Z,23.10
2022-09-26T07:05:00.429Z,23.10
2022-09-26T07:05:31.913Z,23.13
2022-09-26T07:06:03.669Z,23.09
2022-09-26T07:06:35.197Z,23.07
2022-09-26T07:07:06.693Z,23.10
2022-09-26T07:07:41.269Z,23.11